createdAt,value
2023-05-08T00:00:18.680Z,93064.00
2023-05-08T00:01:18.633Z,93064.00
2023-05-08T00:02:18.594Z,93064.00
2023-05-08T00:03:18.604Z,93062.00
2023-05-08T00:04:18.507Z,93064.00
2023-05-08T00:05:18.445Z,93064.00
2023-05-08T00:06:18.404Z,93066.00
2023-05-08T00:07:18.433Z,93066.00
2023-05-08T00:08:18.301Z,93064.00
2023-05-08T00:09:18.264Z,93068.00
2023-05-08T00:10:18.216Z,93064.00
2023-05-08T00:11:18.174Z,93066.00
2023-05-08T00:12:18.131Z,93064.00
2023-05-08T00:13:18.092Z,93066.00
2023-05-08T00:14:18.012Z,93062.00
2023-05-08T00:15:17.971Z,93062.00
2023-05-08T00:16:17.984Z,93062.00
2023-05-08T00:17:17.865Z,93064.00
2023-05-08T00:18:17.838Z,93064.00
2023-05-08T00:19:17.784Z,93064.00
2023-05-08T00:20:17.749Z,93066.00
2023-05-08T00:21:17.705Z,93064.00
2023-05-08T00:22:17.651Z,93066.00
2023-05-08T00:23:17.609Z,93062.00
2023-05-08T00:24:17.555Z,93062.00
2023-05-08T00:25:17.515Z,93064.00
2023-05-08T00:26:17.509Z,93064.00
2023-05-08T00:27:17.496Z,93058.00
2023-05-08T00:28:17.522Z,93058.00
2023-05-08T00:29:17.492Z,93060.00
2023-05-08T00:30:17.485Z,93058.00
2023-05-08T00:31:17.485Z,93058.00
2023-05-08T00:32:17.532Z,93060.00
2023-05-08T00:33:17.499Z,93058.00
2023-05-08T00:34:17.488Z,93058.00
2023-05-08T00:35:17.496Z,93058.00
2023-05-08T00:36:17.524Z,93056.00
2023-05-08T00:37:17.495Z,93054.00
2023-05-08T00:38:17.510Z,93056.00
2023-05-08T00:39:17.514Z,93056.00
2023-05-08T00:40:17.577Z,93056.00
2023-05-08T00:41:17.482Z,93058.00
2023-05-08T00:42:17.483Z,93058.00
2023-05-08T00:43:17.488Z,93058.00
2023-05-08T00:44:17.480Z,93058.00
2023-05-08T00:45:17.474Z,93058.00
2023-05-08T00:46:17.508Z,93056.00
2023-05-08T00:47:17.466Z,93058.00
2023-05-08T00:48:17.463Z,93058.00
2023-05-08T00:49:17.471Z,93058.00
2023-05-08T00:50:17.482Z,93058.00
2023-05-08T00:51:17.487Z,93058.00
2023-05-08T00:52:17.512Z,93062.00
2023-05-08T00:53:17.510Z,93058.00
2023-05-08T00:54:17.497Z,93060.00
2023-05-08T00:55:17.489Z,93060.00
2023-05-08T00:56:17.481Z,93060.00
2023-05-08T00:57:17.462Z,93060.00
2023-05-08T00:58:17.453Z,93060.00
2023-05-08T00:59:17.441Z,93064.00
2023-05-08T01:00:17.431Z,93064.00
2023-05-08T01:01:17.452Z,93062.00
2023-05-08T01:02:17.453Z,93060.00
2023-05-08T01:03:17.570Z,93062.00
2023-05-08T01:04:17.401Z,93058.00
2023-05-08T01:05:17.404Z,93062.00
2023-05-08T01:06:17.425Z,93062.00
2023-05-08T01:07:17.418Z,93064.00
2023-05-08T01:08:17.421Z,93060.00
2023-05-08T01:09:17.415Z,93062.00
2023-05-08T01:10:17.433Z,93062.00
2023-05-08T01:11:17.421Z,93064.00
2023-05-08T01:12:17.407Z,93064.00
2023-05-08T01:13:17.430Z,93060.00
2023-05-08T01:14:17.398Z,93066.00
2023-05-08T01:15:17.461Z,93064.00
2023-05-08T01:16:17.394Z,93062.00
2023-05-08T01:17:17.430Z,93062.00
2023-05-08T01:18:17.396Z,93062.00
2023-05-08T01:19:17.542Z,93062.00
2023-05-08T01:20:17.407Z,93064.00
2023-05-08T01:21:17.396Z,93064.00
2023-05-08T01:22:17.401Z,93064.00
2023-05-08T01:23:17.404Z,93064.00
2023-05-08T01:24:17.425Z,93064.00
2023-05-08T01:25:17.433Z,93066.00
2023-05-08T01:26:17.434Z,93064.00
2023-05-08T01:27:17.452Z,93062.00
2023-05-08T01:28:17.477Z,93062.00
2023-05-08T01:29:17.517Z,93064.00
2023-05-08T01:30:17.525Z,93062.00
2023-05-08T01:31:17.553Z,93062.00
2023-05-08T01:32:17.580Z,93062.00
2023-05-08T01:33:17.690Z,93064.00
2023-05-08T01:34:17.626Z,93064.00
2023-05-08T01:35:17.644Z,93062.00
2023-05-08T01:36:17.682Z,93064.00
2023-05-08T01:37:17.691Z,93060.00
2023-05-08T01:38:17.688Z,93060.00
2023-05-08T01:39:17.706Z,93060.00
2023-05-08T01:40:17.706Z,93056.00
2023-05-08T01:41:17.726Z,93058.00
2023-05-08T01:42:17.779Z,93058.00
2023-05-08T01:43:17.764Z,93056.00
2023-05-08T01:44:17.776Z,93056.00
2023-05-08T01:45:17.804Z,93056.00
2023-05-08T01:46:17.837Z,93060.00
2023-05-08T01:47:17.844Z,93058.00
2023-05-08T01:48:17.853Z,93058.00
2023-05-08T01:49:17.874Z,93060.00
2023-05-08T01:50:17.899Z,93056.00
2023-05-08T01:51:17.906Z,93064.00
2023-05-08T01:52:17.905Z,93060.00
2023-05-08T01:53:17.959Z,93064.00
2023-05-08T01:54:17.911Z,93062.00
2023-05-08T01:55:17.904Z,93062.00
2023-05-08T01:56:17.894Z,93062.00
2023-05-08T01:57:17.897Z,93064.00
2023-05-08T01:58:17.890Z,93062.00
2023-05-08T01:59:17.899Z,93062.00
2023-05-08T02:00:17.888Z,93064.00
2023-05-08T02:01:18.003Z,93062.00
2023-05-08T02:02:17.988Z,93060.00
2023-05-08T02:03:17.936Z,93058.00
2023-05-08T02:04:17.930Z,93060.00
2023-05-08T02:05:17.892Z,93058.00
2023-05-08T02:06:17.902Z,93058.00
2023-05-08T02:07:17.916Z,93058.00
2023-05-08T02:08:17.901Z,93058.00
2023-05-08T02:09:18.003Z,93058.00
2023-05-08T02:10:17.903Z,93060.00
2023-05-08T02:11:17.891Z,93058.00
2023-05-08T02:12:17.897Z,93058.00
2023-05-08T02:13:17.941Z,93056.00
2023-05-08T02:14:17.919Z,93056.00
2023-05-08T02:15:17.918Z,93056.00
2023-05-08T02:16:17.954Z,93058.00
2023-05-08T02:17:17.940Z,93056.00
2023-05-08T02:18:17.939Z,93054.00
2023-05-08T02:19:17.969Z,93062.00
2023-05-08T02:20:17.965Z,93060.00
2023-05-08T02:21:17.981Z,93060.00
2023-05-08T02:22:17.995Z,93060.00
2023-05-08T02:23:17.996Z,93058.00
2023-05-08T02:24:18.019Z,93058.00
2023-05-08T02:25:18.018Z,93060.00
2023-05-08T02:26:18.046Z,93054.00
2023-05-08T02:27:18.056Z,93056.00
2023-05-08T02:28:18.069Z,93056.00
2023-05-08T02:29:18.069Z,93054.00
2023-05-08T02:30:18.064Z,93054.00
2023-05-08T02:31:18.068Z,93056.00
2023-05-08T02:32:18.164Z,93052.00
2023-05-08T02:33:18.073Z,93054.00
2023-05-08T02:34:18.082Z,93056.00
2023-05-08T02:35:18.093Z,93056.00
2023-05-08T02:36:18.111Z,93056.00
2023-05-08T02:37:18.110Z,93058.00
2023-05-08T02:38:18.125Z,93060.00
2023-05-08T02:39:18.147Z,93058.00
2023-05-08T02:40:18.149Z,93056.00
2023-05-08T02:41:18.185Z,93056.00
2023-05-08T02:42:18.181Z,93058.00
2023-05-08T02:43:18.203Z,93058.00
2023-05-08T02:44:18.226Z,93060.00
2023-05-08T02:45:18.228Z,93062.00
2023-05-08T02:46:18.282Z,93062.00
2023-05-08T02:47:18.266Z,93064.00
2023-05-08T02:48:18.293Z,93064.00
2023-05-08T02:49:18.293Z,93064.00
2023-05-08T02:50:18.285Z,93066.00
2023-05-08T02:51:18.291Z,93064.00
2023-05-08T02:52:18.306Z,93068.00
2023-05-08T02:53:18.311Z,93066.00
2023-05-08T02:54:18.341Z,93064.00
2023-05-08T02:55:18.365Z,93066.00
2023-05-08T02:56:18.370Z,93064.00
2023-05-08T02:57:18.388Z,93064.00
2023-05-08T02:58:18.395Z,93064.00
2023-05-08T02:59:18.427Z,93064.00
2023-05-08T03:00:18.442Z,93062.00
2023-05-08T03:01:18.482Z,93064.00
2023-05-08T03:02:18.534Z,93066.00
2023-05-08T03:03:18.530Z,93064.00
2023-05-08T03:04:18.484Z,93066.00
2023-05-08T03:05:18.503Z,93066.00
2023-05-08T03:06:18.520Z,93068.00
2023-05-08T03:07:18.606Z,93066.00
2023-05-08T03:08:18.714Z,93064.00
2023-05-08T03:09:18.905Z,93066.00
2023-05-08T03:10:19.066Z,93066.00
2023-05-08T03:11:19.192Z,93066.00
2023-05-08T03:12:19.396Z,93066.00
2023-05-08T03:13:19.578Z,93066.00
2023-05-08T03:14:19.694Z,93068.00
2023-05-08T03:15:19.839Z,93068.00
2023-05-08T03:16:20.042Z,93068.00
2023-05-08T03:17:20.147Z,93070.00
2023-05-08T03:18:20.265Z,93072.00
2023-05-08T03:19:23.030Z,93068.00
2023-05-08T03:20:20.357Z,93068.00
2023-05-08T03:21:20.317Z,93070.00
2023-05-08T03:22:20.278Z,93066.00
2023-05-08T03:23:20.239Z,93068.00
2023-05-08T03:24:20.196Z,93066.00
2023-05-08T03:25:20.154Z,93068.00
2023-05-08T03:26:20.116Z,93066.00
2023-05-08T03:27:20.066Z,93066.00
2023-05-08T03:28:20.045Z,93068.00
2023-05-08T03:29:19.995Z,93066.00
2023-05-08T03:30:19.955Z,93068.00
2023-05-08T03:31:19.949Z,93068.00
2023-05-08T03:32:19.863Z,93066.00
2023-05-08T03:33:19.815Z,93066.00
2023-05-08T03:34:19.771Z,93070.00
2023-05-08T03:35:19.723Z,93068.00
2023-05-08T03:36:19.673Z,93066.00
2023-05-08T03:37:19.627Z,93068.00
2023-05-08T03:38:19.684Z,93070.00
2023-05-08T03:39:19.636Z,93070.00
2023-05-08T03:40:19.595Z,93072.00
2023-05-08T03:41:19.551Z,93074.00
2023-05-08T03:42:19.516Z,93074.00
2023-05-08T03:43:19.474Z,93074.00
2023-05-08T03:44:19.504Z,93075.00
2023-05-08T03:45:19.522Z,93077.00
2023-05-08T03:46:19.472Z,93077.00
2023-05-08T03:47:19.388Z,93077.00
2023-05-08T03:48:19.355Z,93079.00
2023-05-08T03:49:19.290Z,93081.00
2023-05-08T03:50:19.249Z,93081.00
2023-05-08T03:51:19.209Z,93079.00
2023-05-08T03:52:19.163Z,93081.00
2023-05-08T03:53:19.119Z,93081.00
2023-05-08T03:54:19.089Z,93081.00
2023-05-08T03:55:19.029Z,93081.00
2023-05-08T03:56:19.032Z,93079.00
2023-05-08T03:57:19.005Z,93077.00
2023-05-08T03:58:18.962Z,93077.00
2023-05-08T03:59:18.913Z,93075.00
2023-05-08T04:00:18.884Z,93077.00
2023-05-08T04:01:18.831Z,93077.00
2023-05-08T04:02:18.892Z,93077.00
2023-05-08T04:03:18.899Z,93075.00
2023-05-08T04:04:18.818Z,93079.00
2023-05-08T04:05:18.660Z,93077.00
2023-05-08T04:06:18.614Z,93081.00
2023-05-08T04:07:18.582Z,93079.00
2023-05-08T04:08:18.573Z,93079.00
2023-05-08T04:09:18.590Z,93081.00
2023-05-08T04:10:18.620Z,93079.00
2023-05-08T04:11:18.626Z,93081.00
2023-05-08T04:12:18.722Z,93081.00
2023-05-08T04:13:18.701Z,93085.00
2023-05-08T04:14:18.676Z,93085.00
2023-05-08T04:15:18.712Z,93087.00
2023-05-08T04:16:18.764Z,93083.00
2023-05-08T04:17:18.774Z,93083.00
2023-05-08T04:18:18.754Z,93087.00
2023-05-08T04:19:18.767Z,93087.00
2023-05-08T04:20:18.796Z,93097.00
2023-05-08T04:21:18.881Z,93101.00
2023-05-08T04:22:18.825Z,93101.00
2023-05-08T04:23:18.849Z,93099.00
2023-05-08T04:24:18.856Z,93101.00
2023-05-08T04:25:18.891Z,93101.00
2023-05-08T04:26:18.902Z,93103.00
2023-05-08T04:27:18.961Z,93105.00
2023-05-08T04:28:18.941Z,93103.00
2023-05-08T04:29:18.967Z,93105.00
2023-05-08T04:30:18.986Z,93105.00
2023-05-08T04:31:19.047Z,93109.00
2023-05-08T04:32:19.065Z,93109.00
2023-05-08T04:33:19.140Z,93107.00
2023-05-08T04:34:19.064Z,93109.00
2023-05-08T04:35:19.063Z,93111.00
2023-05-08T04:36:19.084Z,93109.00
2023-05-08T04:37:19.110Z,93112.00
2023-05-08T04:38:19.117Z,93112.00
2023-05-08T04:39:19.134Z,93116.00
2023-05-08T04:40:19.148Z,93112.00
2023-05-08T04:41:19.224Z,93116.00
2023-05-08T04:42:19.190Z,93120.00
2023-05-08T04:43:19.202Z,93116.00
2023-05-08T04:44:19.218Z,93118.00
2023-05-08T04:45:19.245Z,93118.00
2023-05-08T04:46:19.273Z,93122.00
2023-05-08T04:47:19.320Z,93122.00
2023-05-08T04:48:19.279Z,93122.00
2023-05-08T04:49:19.300Z,93120.00
2023-05-08T04:50:19.333Z,93122.00
2023-05-08T04:51:19.338Z,93124.00
2023-05-08T04:52:19.342Z,93122.00
2023-05-08T04:53:19.366Z,93122.00
2023-05-08T04:54:19.392Z,93124.00
2023-05-08T04:55:19.404Z,93126.00
2023-05-08T04:56:19.412Z,93124.00
2023-05-08T04:57:19.447Z,93124.00
2023-05-08T04:58:19.417Z,93124.00
2023-05-08T04:59:19.424Z,93122.00
2023-05-08T05:00:19.428Z,93122.00
2023-05-08T05:01:19.456Z,93122.00
2023-05-08T05:02:19.467Z,93124.00
2023-05-08T05:03:19.449Z,93122.00
2023-05-08T05:04:19.420Z,93122.00
2023-05-08T05:05:19.429Z,93120.00
2023-05-08T05:06:19.426Z,93122.00
2023-05-08T05:07:19.434Z,93124.00
2023-05-08T05:08:19.412Z,93124.00
2023-05-08T05:09:19.422Z,93122.00
2023-05-08T05:10:19.412Z,93124.00
2023-05-08T05:11:19.412Z,93124.00
2023-05-08T05:12:19.416Z,93128.00
2023-05-08T05:13:19.436Z,93128.00
2023-05-08T05:14:19.402Z,93126.00
2023-05-08T05:15:19.384Z,93126.00
2023-05-08T05:16:19.399Z,93126.00
2023-05-08T05:17:19.355Z,93128.00
2023-05-08T05:18:19.358Z,93128.00
2023-05-08T05:19:19.352Z,93126.00
2023-05-08T05:20:19.337Z,93128.00
2023-05-08T05:21:19.337Z,93126.00
2023-05-08T05:22:19.322Z,93128.00
2023-05-08T05:23:19.353Z,93130.00
2023-05-08T05:24:19.326Z,93130.00
2023-05-08T05:25:19.310Z,93128.00
2023-05-08T05:26:19.292Z,93134.00
2023-05-08T05:27:21.182Z,93134.00
2023-05-08T05:28:19.286Z,93136.00
2023-05-08T05:29:19.294Z,93138.00
2023-05-08T05:30:19.322Z,93138.00
2023-05-08T05:31:19.373Z,93138.00
2023-05-08T05:32:19.369Z,93140.00
2023-05-08T05:33:19.354Z,93142.00
2023-05-08T05:34:19.359Z,93142.00
2023-05-08T05:35:19.451Z,93142.00
2023-05-08T05:36:19.396Z,93142.00
2023-05-08T05:37:19.410Z,93140.00
2023-05-08T05:38:19.437Z,93142.00
2023-05-08T05:39:19.503Z,93144.00
2023-05-08T05:40:20.299Z,93144.00
2023-05-08T05:41:19.443Z,93146.00
2023-05-08T05:42:19.416Z,93142.00
2023-05-08T05:43:19.400Z,93144.00
2023-05-08T05:44:19.392Z,93144.00
2023-05-08T05:45:19.394Z,93150.00
2023-05-08T05:46:19.425Z,93150.00
2023-05-08T05:47:19.391Z,93146.00
2023-05-08T05:48:19.381Z,93148.00
2023-05-08T05:49:19.353Z,93150.00
2023-05-08T05:50:19.357Z,93146.00
2023-05-08T05:51:19.369Z,93150.00
2023-05-08T05:52:19.358Z,93148.00
2023-05-08T05:53:19.352Z,93150.00
2023-05-08T05:54:19.370Z,93150.00
2023-05-08T05:55:19.348Z,93154.00
2023-05-08T05:56:19.353Z,93154.00
2023-05-08T05:57:19.340Z,93156.00
2023-05-08T05:58:19.328Z,93154.00
2023-05-08T05:59:19.298Z,93156.00
2023-05-08T06:00:19.274Z,93154.00
2023-05-08T06:01:19.430Z,93156.00
2023-05-08T06:02:20.288Z,93156.00
2023-05-08T06:03:19.361Z,93154.00
2023-05-08T06:04:19.280Z,93156.00
2023-05-08T06:05:19.248Z,93156.00
2023-05-08T06:06:19.249Z,93156.00
2023-05-08T06:07:19.232Z,93158.00
2023-05-08T06:08:19.213Z,93156.00
2023-05-08T06:09:19.211Z,93154.00
2023-05-08T06:10:19.178Z,93156.00
2023-05-08T06:11:20.642Z,93156.00
2023-05-08T06:12:19.084Z,93156.00
2023-05-08T06:13:19.065Z,93154.00
2023-05-08T06:14:18.981Z,93154.00
2023-05-08T06:15:18.933Z,93154.00
2023-05-08T06:16:18.924Z,93154.00
2023-05-08T06:17:18.856Z,93154.00
2023-05-08T06:18:18.792Z,93154.00
2023-05-08T06:19:18.757Z,93154.00
2023-05-08T06:20:18.778Z,93152.00
2023-05-08T06:21:18.661Z,93152.00
2023-05-08T06:22:18.617Z,93154.00
2023-05-08T06:23:18.568Z,93158.00
2023-05-08T06:24:18.542Z,93156.00
2023-05-08T06:25:18.463Z,93154.00
2023-05-08T06:26:18.409Z,93158.00
2023-05-08T06:27:18.365Z,93156.00
2023-05-08T06:28:18.310Z,93154.00
2023-05-08T06:29:18.280Z,93154.00
2023-05-08T06:30:18.247Z,93152.00
2023-05-08T06:31:18.373Z,93152.00
2023-05-08T06:32:18.287Z,93152.00
2023-05-08T06:33:18.195Z,93154.00
2023-05-08T06:34:18.175Z,93154.00
2023-05-08T06:35:18.155Z,93154.00
2023-05-08T06:36:18.134Z,93154.00
2023-05-08T06:37:18.117Z,93154.00
2023-05-08T06:38:18.096Z,93156.00
2023-05-08T06:39:18.067Z,93154.00
2023-05-08T06:40:18.052Z,93156.00
2023-05-08T06:41:18.036Z,93156.00
2023-05-08T06:42:18.010Z,93160.00
2023-05-08T06:43:17.993Z,93160.00
2023-05-08T06:44:17.969Z,93162.00
2023-05-08T06:45:17.954Z,93160.00
2023-05-08T06:46:17.938Z,93160.00
2023-05-08T06:47:18.250Z,93164.00
2023-05-08T06:48:17.872Z,93162.00
2023-05-08T06:49:17.841Z,93160.00
2023-05-08T06:50:17.820Z,93162.00
2023-05-08T06:51:17.795Z,93166.00
2023-05-08T06:52:17.781Z,93164.00
2023-05-08T06:53:17.729Z,93164.00
2023-05-08T06:54:17.707Z,93166.00
2023-05-08T06:55:17.671Z,93166.00
2023-05-08T06:56:17.634Z,93164.00
2023-05-08T06:57:17.663Z,93166.00
2023-05-08T06:58:17.554Z,93166.00
2023-05-08T06:59:17.553Z,93166.00
2023-05-08T07:00:17.507Z,93167.00
2023-05-08T07:01:17.501Z,93166.00
2023-05-08T07:02:17.467Z,93169.00
2023-05-08T07:03:17.387Z,93169.00
2023-05-08T07:04:17.418Z,93166.00
2023-05-08T07:05:17.595Z,93166.00
2023-05-08T07:06:17.301Z,93167.00
2023-05-08T07:07:17.284Z,93167.00
2023-05-08T07:08:17.229Z,93167.00
2023-05-08T07:09:17.218Z,93167.00
2023-05-08T07:10:17.196Z,93167.00
2023-05-08T07:11:17.133Z,93169.00
2023-05-08T07:12:17.095Z,93169.00
2023-05-08T07:13:17.094Z,93169.00
2023-05-08T07:14:17.031Z,93169.00
2023-05-08T07:15:25.377Z,93171.00
2023-05-08T07:16:18.023Z,93173.00
2023-05-08T07:17:16.897Z,93171.00
2023-05-08T07:18:16.839Z,93169.00
2023-05-08T07:19:17.668Z,93171.00
2023-05-08T07:20:16.736Z,93167.00
2023-05-08T07:21:16.687Z,93171.00
2023-05-08T07:22:16.679Z,93171.00
2023-05-08T07:23:16.564Z,93167.00
2023-05-08T07:24:16.535Z,93167.00
2023-05-08T07:25:16.478Z,93166.00
2023-05-08T07:26:16.415Z,93167.00
2023-05-08T07:27:16.367Z,93166.00
2023-05-08T07:28:16.317Z,93169.00
2023-05-08T07:29:16.406Z,93169.00
2023-05-08T07:30:16.215Z,93169.00
2023-05-08T07:31:16.192Z,93167.00
2023-05-08T07:32:16.094Z,93171.00
2023-05-08T07:33:16.043Z,93169.00
2023-05-08T07:34:16.001Z,93169.00
2023-05-08T07:35:16.314Z,93167.00
2023-05-08T07:36:15.966Z,93175.00
2023-05-08T07:37:15.837Z,93171.00
2023-05-08T07:38:15.803Z,93171.00
2023-05-08T07:39:15.747Z,93173.00
2023-05-08T07:40:15.692Z,93171.00
2023-05-08T07:41:15.685Z,93171.00
2023-05-08T07:42:15.592Z,93173.00
2023-05-08T07:43:15.540Z,93173.00
2023-05-08T07:44:15.495Z,93173.00
2023-05-08T07:45:15.794Z,93171.00
2023-05-08T07:46:15.397Z,93171.00
2023-05-08T07:47:15.391Z,93173.00
2023-05-08T07:48:15.290Z,93171.00
2023-05-08T07:49:15.227Z,93169.00
2023-05-08T07:50:15.173Z,93169.00
2023-05-08T07:51:15.123Z,93169.00
2023-05-08T07:52:15.111Z,93169.00
2023-05-08T07:53:15.141Z,93171.00
2023-05-08T07:54:15.008Z,93169.00
2023-05-08T07:55:15.145Z,93169.00
2023-05-08T07:56:15.862Z,93171.00
2023-05-08T07:57:14.821Z,93167.00
2023-05-08T07:58:14.770Z,93166.00
2023-05-08T07:59:14.709Z,93167.00
2023-05-08T08:00:14.665Z,93167.00
2023-05-08T08:01:14.604Z,93169.00
2023-05-08T08:02:14.585Z,93167.00
2023-05-08T08:03:14.581Z,93169.00
2023-05-08T08:04:15.553Z,93167.00
2023-05-08T08:05:14.775Z,93166.00
2023-05-08T08:06:14.341Z,93167.00
2023-05-08T08:07:14.286Z,93167.00
2023-05-08T08:08:14.248Z,93166.00
2023-05-08T08:09:14.191Z,93166.00
2023-05-08T08:10:14.156Z,93164.00
2023-05-08T08:11:14.095Z,93162.00
2023-05-08T08:12:14.053Z,93166.00
2023-05-08T08:13:14.036Z,93164.00
2023-05-08T08:14:13.979Z,93164.00
2023-05-08T08:15:14.034Z,93166.00
2023-05-08T08:16:13.891Z,93164.00
2023-05-08T08:17:14.054Z,93162.00
2023-05-08T08:18:13.841Z,93164.00
2023-05-08T08:19:13.759Z,93164.00
2023-05-08T08:20:13.722Z,93162.00
2023-05-08T08:21:13.664Z,93164.00
2023-05-08T08:22:13.625Z,93162.00
2023-05-08T08:23:13.556Z,93162.00
2023-05-08T08:24:13.570Z,93162.00
2023-05-08T08:25:13.586Z,93160.00
2023-05-08T08:26:13.384Z,93158.00
2023-05-08T08:27:13.338Z,93158.00
2023-05-08T08:28:13.276Z,93160.00
2023-05-08T08:29:13.259Z,93156.00
2023-05-08T08:30:18.311Z,93158.00
2023-05-08T08:31:14.206Z,93156.00
2023-05-08T08:32:13.104Z,93156.00
2023-05-08T08:33:13.213Z,93156.00
2023-05-08T08:34:12.975Z,93154.00
2023-05-08T08:35:13.353Z,93156.00
2023-05-08T08:36:12.878Z,93152.00
2023-05-08T08:37:12.810Z,93154.00
2023-05-08T08:38:12.747Z,93152.00
2023-05-08T08:39:14.684Z,93154.00
2023-05-08T08:40:12.629Z,93152.00
2023-05-08T08:41:12.556Z,93154.00
2023-05-08T08:42:12.507Z,93150.00
2023-05-08T08:43:12.442Z,93152.00
2023-05-08T08:44:12.382Z,93148.00
2023-05-08T08:45:12.664Z,93152.00
2023-05-08T08:46:12.326Z,93154.00
2023-05-08T08:47:12.187Z,93154.00
2023-05-08T08:48:12.173Z,93154.00
2023-05-08T08:49:12.148Z,93154.00
2023-05-08T08:50:14.410Z,93154.00
2023-05-08T08:51:11.925Z,93154.00
2023-05-08T08:52:11.880Z,93158.00
2023-05-08T08:53:11.790Z,93156.00
2023-05-08T08:54:11.717Z,93156.00
2023-05-08T08:55:11.905Z,93156.00
2023-05-08T08:56:11.589Z,93154.00
2023-05-08T08:57:11.525Z,93156.00
2023-05-08T08:58:11.459Z,93152.00
2023-05-08T08:59:11.398Z,93152.00
2023-05-08T09:00:11.341Z,93152.00
2023-05-08T09:01:11.294Z,93150.00
2023-05-08T09:02:11.272Z,93156.00
2023-05-08T09:03:11.194Z,93152.00
2023-05-08T09:04:11.176Z,93150.00
2023-05-08T09:05:11.419Z,93150.00
2023-05-08T09:06:10.961Z,93148.00
2023-05-08T09:07:10.880Z,93146.00
2023-05-08T09:08:10.822Z,93144.00
2023-05-08T09:09:10.756Z,93146.00
2023-05-08T09:10:10.728Z,93144.00
2023-05-08T09:11:10.628Z,93146.00
2023-05-08T09:12:10.549Z,93144.00
2023-05-08T09:13:10.519Z,93144.00
2023-05-08T09:14:10.400Z,93146.00
2023-05-08T09:15:10.432Z,93146.00
2023-05-08T09:16:10.296Z,93144.00
2023-05-08T09:17:10.194Z,93144.00
2023-05-08T09:18:10.169Z,93144.00
2023-05-08T09:19:10.075Z,93146.00
2023-05-08T09:20:10.026Z,93144.00
2023-05-08T09:21:10.012Z,93142.00
2023-05-08T09:22:09.881Z,93144.00
2023-05-08T09:23:09.813Z,93142.00
2023-05-08T09:24:09.913Z,93142.00
2023-05-08T09:25:09.867Z,93146.00
2023-05-08T09:26:09.815Z,93144.00
2023-05-08T09:27:09.938Z,93142.00
2023-05-08T09:28:09.904Z,93142.00
2023-05-08T09:29:09.781Z,93142.00
2023-05-08T09:30:09.769Z,93142.00
2023-05-08T09:31:09.759Z,93140.00
2023-05-08T09:32:09.856Z,93140.00
2023-05-08T09:33:09.772Z,93140.00
2023-05-08T09:34:09.712Z,93142.00
2023-05-08T09:35:09.730Z,93142.00
2023-05-08T09:36:09.693Z,93140.00
2023-05-08T09:37:09.728Z,93140.00
2023-05-08T09:38:09.675Z,93142.00
2023-05-08T09:39:09.611Z,93140.00
2023-05-08T09:40:09.576Z,93138.00
2023-05-08T09:41:09.561Z,93138.00
2023-05-08T09:42:09.581Z,93138.00
2023-05-08T09:43:09.534Z,93138.00
2023-05-08T09:44:09.502Z,93138.00
2023-05-08T09:45:09.493Z,93138.00
2023-05-08T09:46:09.481Z,93136.00
2023-05-08T09:47:09.441Z,93138.00
2023-05-08T09:48:09.482Z,93134.00
2023-05-08T09:49:09.437Z,93142.00
2023-05-08T09:50:09.517Z,93142.00
2023-05-08T09:51:09.436Z,93140.00
2023-05-08T09:52:09.455Z,93140.00
2023-05-08T09:53:09.503Z,93140.00
2023-05-08T09:54:09.403Z,93140.00
2023-05-08T09:55:09.381Z,93140.00
2023-05-08T09:56:09.375Z,93136.00
2023-05-08T09:57:09.338Z,93138.00
2023-05-08T09:58:09.327Z,93138.00
2023-05-08T09:59:09.294Z,93136.00
2023-05-08T10:00:09.268Z,93136.00
2023-05-08T10:01:10.231Z,93138.00
2023-05-08T10:02:09.390Z,93136.00
2023-05-08T10:03:09.468Z,93138.00
2023-05-08T10:04:09.398Z,93136.00
2023-05-08T10:05:10.301Z,93136.00
2023-05-08T10:06:09.289Z,93130.00
2023-05-08T10:07:09.283Z,93128.00
2023-05-08T10:08:09.265Z,93128.00
2023-05-08T10:09:09.496Z,93130.00
2023-05-08T10:10:09.552Z,93134.00
2023-05-08T10:11:09.672Z,93130.00
2023-05-08T10:12:09.856Z,93128.00
2023-05-08T10:13:09.994Z,93130.00
2023-05-08T10:14:10.135Z,93134.00
2023-05-08T10:15:10.261Z,93132.00
2023-05-08T10:16:10.380Z,93132.00
2023-05-08T10:17:10.618Z,93130.00
2023-05-08T10:18:10.728Z,93130.00
2023-05-08T10:19:10.769Z,93132.00
2023-05-08T10:20:10.972Z,93130.00
2023-05-08T10:21:10.953Z,93130.00
2023-05-08T10:22:11.144Z,93128.00
2023-05-08T10:23:11.260Z,93128.00
2023-05-08T10:24:11.409Z,93124.00
2023-05-08T10:25:11.818Z,93128.00
2023-05-08T10:26:11.548Z,93128.00
2023-05-08T10:27:11.389Z,93128.00
2023-05-08T10:28:11.317Z,93124.00
2023-05-08T10:29:11.264Z,93122.00
2023-05-08T10:30:11.401Z,93124.00
2023-05-08T10:31:11.179Z,93124.00
2023-05-08T10:32:11.323Z,93120.00
2023-05-08T10:33:11.467Z,93122.00
2023-05-08T10:34:11.532Z,93120.00
2023-05-08T10:35:11.669Z,93120.00
2023-05-08T10:36:11.711Z,93120.00
2023-05-08T10:37:11.812Z,93118.00
2023-05-08T10:38:11.856Z,93118.00
2023-05-08T10:39:11.989Z,93116.00
2023-05-08T10:40:12.311Z,93118.00
2023-05-08T10:41:12.117Z,93112.00
2023-05-08T10:42:12.001Z,93114.00
2023-05-08T10:43:11.948Z,93114.00
2023-05-08T10:44:11.922Z,93112.00
2023-05-08T10:45:11.885Z,93114.00
2023-05-08T10:46:11.879Z,93114.00
2023-05-08T10:47:11.808Z,93112.00
2023-05-08T10:48:12.755Z,93111.00
2023-05-08T10:49:11.868Z,93111.00
2023-05-08T10:50:12.044Z,93111.00
2023-05-08T10:51:11.790Z,93107.00
2023-05-08T10:52:11.688Z,93107.00
2023-05-08T10:53:11.643Z,93105.00
2023-05-08T10:54:11.580Z,93103.00
2023-05-08T10:55:11.652Z,93105.00
2023-05-08T10:56:11.757Z,93101.00
2023-05-08T10:57:11.846Z,93101.00
2023-05-08T10:58:11.958Z,93099.00
2023-05-08T10:59:12.049Z,93097.00
2023-05-08T11:00:12.253Z,93087.00
2023-05-08T11:01:12.419Z,93087.00
2023-05-08T11:02:12.354Z,93085.00
2023-05-08T11:03:27.289Z,93085.00
2023-05-08T11:04:13.416Z,93083.00
2023-05-08T11:05:12.309Z,93083.00
2023-05-08T11:06:12.219Z,93079.00
2023-05-08T11:07:12.099Z,93081.00
2023-05-08T11:08:12.036Z,93077.00
2023-05-08T11:09:11.916Z,93075.00
2023-05-08T11:10:11.988Z,93075.00
2023-05-08T11:11:11.762Z,93074.00
2023-05-08T11:12:11.655Z,93074.00
2023-05-08T11:13:11.629Z,93072.00
2023-05-08T11:14:11.508Z,93070.00
2023-05-08T11:15:11.392Z,93068.00
2023-05-08T11:16:11.388Z,93070.00
2023-05-08T11:17:11.201Z,93068.00
2023-05-08T11:18:11.181Z,93064.00
2023-05-08T11:19:11.020Z,93064.00
2023-05-08T11:20:10.987Z,93066.00
2023-05-08T11:21:10.816Z,93064.00
2023-05-08T11:22:10.729Z,93064.00
2023-05-08T11:23:10.642Z,93064.00
2023-05-08T11:24:10.601Z,93060.00
2023-05-08T11:25:10.590Z,93060.00
2023-05-08T11:26:10.539Z,93060.00
2023-05-08T11:27:10.703Z,93060.00
2023-05-08T11:28:10.786Z,93058.00
2023-05-08T11:29:10.899Z,93056.00
2023-05-08T11:30:11.118Z,93056.00
2023-05-08T11:31:11.149Z,93058.00
2023-05-08T11:32:11.193Z,93054.00
2023-05-08T11:33:11.301Z,93054.00
2023-05-08T11:34:11.429Z,93054.00
2023-05-08T11:35:11.558Z,93054.00
2023-05-08T11:36:11.643Z,93054.00
2023-05-08T11:37:11.737Z,93056.00
2023-05-08T11:38:11.812Z,93054.00
2023-05-08T11:39:12.118Z,93054.00
2023-05-08T11:40:12.244Z,93054.00
2023-05-08T11:41:11.949Z,93054.00
2023-05-08T11:42:11.918Z,93050.00
2023-05-08T11:43:11.851Z,93052.00
2023-05-08T11:44:14.399Z,93050.00